Nantasket Beach, Massachusetts
Current Conditions -  °F | °C
As of 9:35 PM on Wednesday 26 Nov 2014 (Local Time) from KBOS Reporting Station
Light Snow Light Snow  
Wind Chill: 25°   Ceiling: 700
Heat Index: 36°   Visibility: 2mi
Dew Point: 34°   Wind: 20mph
Humidity: 93%   Direction: 350°N
Pressure: 29.71"   Gusts: 29mph
Location:  42.2829°N, 70.8734°W
Report Text: KBOS 270235Z 35017G25KT 2SM -SNRA BR BKN007 OVC012 02/01 A2971 RMK AO2 PK WND 01026/0156 SFC VIS 2 1/2 VIS 1 3/4 E P0003 $
Loading
Personal Weather Stations






























Interactive Weather Map New forecast layout! Learn more

10-Day Weather Forecast

Advertisements
Track Severe Weather on mobile